Terminal Aerodrome Forecast
Issued by NWS Paducah, KY

Home | Current Version | Previous Version | Text Only | Print | Product List | Glossary On
Versions: 1 2 3 4 5 6 7 8 9 10 11 12 13 14 15 16 17 18 19 20
000
FTUS43 KPAH 302320
TAFPAH
TAF
KPAH 302320Z 3100/3124 25010KT P6SM VCSH SCT010 BKN035
      TEMPO 3100/3104 -SHRA BKN010
     FM310600 32005KT 6SM BR OVC005
     FM311500 35006KT P6SM SCT015 BKN025=

USA.gov is the U.S. government's official web portal to all federal, state and local government web resources and services.